28 de maio de 2022

Hora Código Clima Temp. Visibilidade Tecto Vento METAR/SPECI
6:00 da tarde
V
81 °F 6¼ mi+ - 340° 340° 9 kt METAR LFBA 281600Z AUTO 34009KT 310V010 CAVOK 27/08 Q1014 NOSIG
5:30 da tarde
V
81 °F 6¼ mi+ - 360° 360° 11 kt METAR LFBA 281530Z AUTO 36011KT 310V040 CAVOK 27/08 Q1014 NOSIG
5:00 da tarde
V
81 °F 6¼ mi+ - 360° 360° 7 kt METAR LFBA 281500Z AUTO 36007KT 320V090 CAVOK 27/08 Q1014 NOSIG
4:30 da tarde
V
81 °F 6¼ mi+ - 340° 340° 8 kt METAR LFBA 281430Z AUTO 34008KT 310V030 CAVOK 27/09 Q1015 NOSIG
4:00 da tarde
V
81 °F 6¼ mi+ - 020° 020° 8 kt METAR LFBA 281400Z AUTO 02008KT 270V060 CAVOK 27/09 Q1015 NOSIG
3:30 da tarde
V
79 °F 6¼ mi+ - 350° 350° 7 kt METAR LFBA 281330Z AUTO 35007KT 270V060 CAVOK 26/10 Q1015 NOSIG
3:00 da tarde
V
79 °F 6¼ mi+ - 340° 340° 7 kt METAR LFBA 281300Z AUTO 34007KT 280V060 CAVOK 26/09 Q1016 NOSIG
2:30 da tarde
V
77 °F 6¼ mi+ - 360° 360° 7 kt METAR LFBA 281230Z AUTO 36007KT 310V050 CAVOK 25/11 Q1016 NOSIG
2:00 da tarde
V
75 °F 6¼ mi+ - 360° 360° 8 kt METAR LFBA 281200Z AUTO 36008KT 320V040 CAVOK 24/11 Q1017 NOSIG
1:30 da tarde
V
75 °F 6¼ mi+ - 330° 330° 6 kt METAR LFBA 281130Z AUTO 33006KT 270V360 CAVOK 24/13 Q1017 NOSIG
1:00 da tarde
V
73 °F 6¼ mi+ - 360° 360° 7 kt METAR LFBA 281100Z AUTO 36007KT 300V030 CAVOK 23/13 Q1017 NOSIG
12:30 da tarde
V
72 °F 6¼ mi+ - 320° 320° 8 kt METAR LFBA 281030Z AUTO 32008KT 270V360 CAVOK 22/13 Q1018 NOSIG
12:00 da tarde
V
72 °F 6¼ mi+ - 310° 310° 7 kt METAR LFBA 281000Z AUTO 31007KT 270V360 CAVOK 22/13 Q1018 NOSIG
11:30 da manhã
V
68 °F 6¼ mi+ - 310° 310° 7 kt METAR LFBA 280930Z AUTO 31007KT 270V340 CAVOK 20/13 Q1018 NOSIG
11:00 da manhã
V
68 °F 6¼ mi+ - 300° 300° 5 kt METAR LFBA 280900Z AUTO 30005KT 250V340 CAVOK 20/13 Q1018 NOSIG
10:30 da manhã
V
66 °F 6¼ mi+ - 300° 300° 4 kt METAR LFBA 280830Z AUTO 30004KT 250V360 CAVOK 19/13 Q1019 NOSIG
10:00 da manhã
V
66 °F 6¼ mi+ - Var Var 3 kt METAR LFBA 280800Z AUTO VRB03KT CAVOK 19/13 Q1019 NOSIG
9:30 da manhã
V
64 °F 6¼ mi+ - 300° 300° 3 kt METAR LFBA 280730Z AUTO 30003KT 250V360 CAVOK 18/13 Q1019 NOSIG
9:00 da manhã
V
63 °F 6¼ mi+ - 330° 330° 4 kt METAR LFBA 280700Z AUTO 33004KT 270V020 CAVOK 17/13 Q1019 NOSIG
8:30 da manhã
V
61 °F 6¼ mi+ - 310° 310° 4 kt METAR LFBA 280630Z AUTO 31004KT 270V340 CAVOK 16/13 Q1019 NOSIG
8:00 da manhã
V
59 °F 6¼ mi+ - 290° 290° 5 kt METAR LFBA 280600Z AUTO 29005KT CAVOK 15/13 Q1019 NOSIG
7:30 da manhã
V
57 °F 6¼ mi+ - 270° 270° 4 kt METAR LFBA 280530Z AUTO 27004KT CAVOK 14/13 Q1019
7:00 da manhã
V
54 °F 6¼ mi+ - 270° 270° 3 kt METAR LFBA 280500Z AUTO 27003KT CAVOK 12/12 Q1019
6:30 da manhã
V
54 °F 6¼ mi+ - 280° 280° 3 kt METAR LFBA 280430Z AUTO 28003KT CAVOK 12/11 Q1019
6:00 da manhã
V
55 °F 6¼ mi+ - 270° 270° 3 kt METAR LFBA 280400Z AUTO 27003KT CAVOK 13/12 Q1019
5:30 da manhã
V
55 °F 6¼ mi+ - 280° 280° 3 kt METAR LFBA 280330Z AUTO 28003KT CAVOK 13/11 Q1019
5:00 da manhã
V
55 °F 6¼ mi+ - 270° 270° 3 kt METAR LFBA 280300Z AUTO 27003KT CAVOK 13/12 Q1019
4:30 da manhã
V
57 °F 6¼ mi+ - 270° 270° 4 kt METAR LFBA 280230Z AUTO 27004KT CAVOK 14/12 Q1020
4:00 da manhã
V
57 °F 6¼ mi+ - 280° 280° 5 kt METAR LFBA 280200Z AUTO 28005KT CAVOK 14/12 Q1020
3:30 da manhã
V
55 °F 6¼ mi+ - 300° 300° 5 kt METAR LFBA 280130Z AUTO 30005KT CAVOK 13/12 Q1020
3:00 da manhã
V
57 °F 6¼ mi+ - 280° 280° 4 kt METAR LFBA 280100Z AUTO 28004KT CAVOK 14/12 Q1021
2:30 da manhã
V
57 °F 6¼ mi+ - 290° 290° 5 kt METAR LFBA 280030Z AUTO 29005KT CAVOK 14/12 Q1021
2:00 da manhã
V
59 °F 6¼ mi+ - 290° 290° 5 kt METAR LFBA 280000Z AUTO 29005KT CAVOK 15/12 Q1021
1:30 da manhã
V
61 °F 6¼ mi+ - 270° 270° 3 kt METAR LFBA 272330Z AUTO 27003KT CAVOK 16/12 Q1022
1:00 da manhã
V
61 °F 6¼ mi+ - 270° 270° 4 kt METAR LFBA 272300Z AUTO 27004KT CAVOK 16/12 Q1022
12:30 da manhã
V
61 °F 6¼ mi+ - 270° 270° 3 kt METAR LFBA 272230Z AUTO 27003KT CAVOK 16/12 Q1022
12:00 da manhã
V
61 °F 6¼ mi+ - 280° 280° 4 kt METAR LFBA 272200Z AUTO 28004KT CAVOK 16/12 Q1022

27 de maio de 2022

Hora Código Clima Temp. Visibilidade Tecto Vento METAR/SPECI
11:30 da tarde
V
64 °F 6¼ mi+ - 270° 270° 4 kt METAR LFBA 272130Z AUTO 27004KT CAVOK 18/12 Q1022
11:00 da tarde
V
64 °F 6¼ mi+ - 250° 250° 4 kt METAR LFBA 272100Z AUTO 25004KT CAVOK 18/12 Q1022
10:30 da tarde
V
66 °F 6¼ mi+ - 260° 260° 4 kt METAR LFBA 272030Z AUTO 26004KT CAVOK 19/12 Q1022 NOSIG
10:00 da tarde
L
66 °F ⅝ mi - 270° 270° 4 kt METAR LFBA 272000Z AUTO 27004KT 2900 1000 R29/P2000 HZ NSC 19/12 Q1022 BECMG 9999 NSW
9:30 da tarde
V
68 °F 6¼ mi+ - 290° 290° 6 kt METAR LFBA 271930Z AUTO 29006KT CAVOK 20/12 Q1022 NOSIG
9:00 da tarde
V
72 °F 6¼ mi+ - 300° 300° 5 kt METAR LFBA 271900Z AUTO 30005KT CAVOK 22/12 Q1022 NOSIG
8:30 da tarde
V
73 °F 6¼ mi+ - 330° 330° 7 kt METAR LFBA 271830Z AUTO 33007KT 300V360 CAVOK 23/12 Q1022 NOSIG
8:00 da tarde
V
75 °F 6¼ mi+ - 340° 340° 9 kt METAR LFBA 271800Z AUTO 34009KT 310V010 CAVOK 24/12 Q1022 NOSIG
7:30 da tarde
V
75 °F 6¼ mi+ - 340° 340° 10 kt METAR LFBA 271730Z AUTO 34010KT 310V020 CAVOK 24/13 Q1022 NOSIG
7:00 da tarde
V
77 °F 6¼ mi+ - 320° 320° 10 kt METAR LFBA 271700Z AUTO 32010KT 290V350 CAVOK 25/13 Q1022 NOSIG
6:30 da tarde
V
77 °F 6¼ mi+ - 320° 320° 9 kt METAR LFBA 271630Z AUTO 32009KT 270V360 CAVOK 25/13 Q1022 NOSIG
6:00 da tarde
V
79 °F 6¼ mi+ - 320° 320° 10 kt METAR LFBA 271600Z AUTO 32010KT 290V360 CAVOK 26/13 Q1022 NOSIG
5:30 da tarde
V
79 °F 6¼ mi+ - 310° 310° 9 kt METAR LFBA 271530Z AUTO 31009KT 270V350 CAVOK 26/14 Q1022 NOSIG
5:00 da tarde
V
77 °F 6¼ mi+ - 310° 310° 8 kt METAR LFBA 271500Z AUTO 31008KT 270V350 CAVOK 25/13 Q1023 NOSIG
4:30 da tarde
V
77 °F 6¼ mi+ - 350° 350° 10 kt METAR LFBA 271430Z AUTO 35010KT 320V030 9999 FEW048 25/13 Q1023 NOSIG
4:00 da tarde
V
75 °F 6¼ mi+ - 340° 340° 8 kt METAR LFBA 271400Z AUTO 34008KT 300V030 9999 FEW047 24/14 Q1023 NOSIG
3:30 da tarde
V
77 °F 6¼ mi+ - 320° 320° 8 kt METAR LFBA 271330Z AUTO 32008KT 270V340 9999 SCT045 25/14 Q1023 NOSIG
3:00 da tarde
V
75 °F 6¼ mi+ - 320° 320° 8 kt METAR LFBA 271300Z AUTO 32008KT 280V360 9999 FEW042 24/14 Q1024 NOSIG
2:30 da tarde
V
75 °F 6¼ mi+ - 310° 310° 7 kt METAR LFBA 271230Z AUTO 31007KT 270V030 9999 FEW043 24/14 Q1024 NOSIG
2:00 da tarde
V
75 °F 6¼ mi+ 4.300 ft 320° 320° 9 kt METAR LFBA 271200Z AUTO 32009KT 270V010 9999 BKN043 24/14 Q1025 NOSIG
1:30 da tarde
V
73 °F 6¼ mi+ 4.700 ft 310° 310° 8 kt METAR LFBA 271130Z AUTO 31008KT 240V340 9999 SCT040 BKN047 23/13 Q1025 NOSIG
1:00 da tarde
V
72 °F 6¼ mi+ 4.700 ft 320° 320° 8 kt METAR LFBA 271100Z AUTO 32008KT 270V350 9999 SCT041 BKN047 22/13 Q1025 NOSIG
12:30 da tarde
V
72 °F 6¼ mi+ 4.300 ft 320° 320° 7 kt METAR LFBA 271030Z AUTO 32007KT 270V360 9999 BKN043 22/13 Q1025 NOSIG
12:00 da tarde
V
70 °F 6¼ mi+ 4.300 ft 340° 340° 7 kt METAR LFBA 271000Z AUTO 34007KT 300V010 9999 OVC043 21/12 Q1026 NOSIG
11:30 da manhã
V
68 °F 6¼ mi+ 4.300 ft 330° 330° 6 kt METAR LFBA 270930Z AUTO 33006KT 300V360 9999 SCT032 BKN043 20/13 Q1026 NOSIG
11:00 da manhã
V
70 °F 6¼ mi+ - 340° 340° 5 kt METAR LFBA 270900Z AUTO 34005KT 230V030 9999 SCT031 SCT038 21/14 Q1026 NOSIG
10:30 da manhã
V
68 °F 6¼ mi+ - 350° 350° 5 kt METAR LFBA 270830Z AUTO 35005KT 290V030 CAVOK 20/14 Q1026 NOSIG
10:00 da manhã
V
66 °F 6¼ mi+ - 330° 330° 7 kt METAR LFBA 270800Z AUTO 33007KT CAVOK 19/13 Q1026 NOSIG
9:30 da manhã
V
64 °F 6¼ mi+ - 330° 330° 5 kt METAR LFBA 270730Z AUTO 33005KT 280V020 CAVOK 18/13 Q1026 NOSIG
9:00 da manhã
V
64 °F 6¼ mi+ - 340° 340° 5 kt METAR LFBA 270700Z AUTO 34005KT 290V020 9999 SCT048 18/13 Q1026 NOSIG
8:30 da manhã
V
63 °F 6¼ mi+ 4.900 ft 320° 320° 5 kt METAR LFBA 270630Z AUTO 32005KT 290V350 9999 OVC049 17/13 Q1026 NOSIG
8:00 da manhã
V
61 °F 6¼ mi+ 4.800 ft 300° 300° 4 kt METAR LFBA 270600Z AUTO 30004KT 9999 OVC048 16/13 Q1026 NOSIG
7:30 da manhã
V
61 °F 6¼ mi+ 4.900 ft 290° 290° 4 kt METAR LFBA 270530Z AUTO 29004KT 9999 BKN049 16/13 Q1026
7:00 da manhã
V
59 °F 6¼ mi+ - 290° 290° 4 kt METAR LFBA 270500Z AUTO 29004KT CAVOK 15/13 Q1026
6:30 da manhã
V
59 °F 6¼ mi+ - 290° 290° 3 kt METAR LFBA 270430Z AUTO 29003KT CAVOK 15/13 Q1026
6:00 da manhã
V
59 °F 6¼ mi+ - 280° 280° 3 kt METAR LFBA 270400Z AUTO 28003KT CAVOK 15/13 Q1026
5:30 da manhã
V
59 °F 6¼ mi+ 4.900 ft 290° 290° 3 kt METAR LFBA 270330Z AUTO 29003KT 9999 OVC049 15/13 Q1026
5:00 da manhã
V
61 °F 6¼ mi+ 4.900 ft 290° 290° 4 kt METAR LFBA 270300Z AUTO 29004KT 9999 OVC049 16/13 Q1026
4:30 da manhã
V
61 °F 6¼ mi+ 4.800 ft 290° 290° 5 kt METAR LFBA 270230Z AUTO 29005KT 9999 OVC048 16/13 Q1026
4:00 da manhã
V
61 °F 6¼ mi+ 4.700 ft 300° 300° 5 kt METAR LFBA 270200Z AUTO 30005KT 9999 OVC047 16/13 Q1026
3:30 da manhã
V
61 °F 6¼ mi+ 4.600 ft 290° 290° 5 kt METAR LFBA 270130Z AUTO 29005KT 9999 OVC046 16/13 Q1026
3:00 da manhã
V
61 °F 6¼ mi+ 4.600 ft 290° 290° 4 kt METAR LFBA 270100Z AUTO 29004KT 9999 OVC046 16/13 Q1027
2:30 da manhã
V
61 °F 6¼ mi+ 4.600 ft 290° 290° 4 kt METAR LFBA 270030Z AUTO 29004KT 9999 OVC046 16/13 Q1027
2:00 da manhã
V
61 °F 6¼ mi+ 4.500 ft 280° 280° 4 kt METAR LFBA 270000Z AUTO 28004KT 9999 OVC045 16/13 Q1027
1:30 da manhã
V
61 °F 6¼ mi+ 4.500 ft 290° 290° 4 kt METAR LFBA 262330Z AUTO 29004KT 9999 OVC045 16/13 Q1027
1:00 da manhã
V
63 °F 6¼ mi+ 4.500 ft 280° 280° 3 kt METAR LFBA 262300Z AUTO 28003KT 9999 OVC045 17/13 Q1027
12:30 da manhã
V
63 °F 6¼ mi+ 4.600 ft 290° 290° 3 kt METAR LFBA 262230Z AUTO 29003KT 9999 OVC046 17/13 Q1027
12:00 da manhã
V
63 °F 6¼ mi+ 4.500 ft 290° 290° 4 kt METAR LFBA 262200Z AUTO 29004KT 9999 OVC045 17/13 Q1027

26 de maio de 2022

Hora Código Clima Temp. Visibilidade Tecto Vento METAR/SPECI
11:30 da tarde
V
63 °F 6¼ mi+ 4.500 ft 270° 270° 2 kt METAR LFBA 262130Z AUTO 27002KT 9999 OVC045 17/13 Q1027
11:00 da tarde
V
63 °F 6¼ mi+ 4.600 ft 280° 280° 3 kt METAR LFBA 262100Z AUTO 28003KT 250V310 9999 OVC046 17/13 Q1027
10:30 da tarde
V
63 °F 6¼ mi+ 4.600 ft 270° 270° 4 kt METAR LFBA 262030Z AUTO 27004KT 9999 OVC046 17/13 Q1027
10:00 da tarde
I
63 °F 1⅜ mi 4.700 ft 260° 260° 3 kt METAR LFBA 262000Z AUTO 26003KT 5000 2300 BR OVC047 17/12 Q1026 NOSIG
9:30 da tarde
V
63 °F 6¼ mi+ 4.900 ft 310° 310° 3 kt METAR LFBA 261930Z AUTO 31003KT 9999 BKN049 17/12 Q1026 NOSIG
9:00 da tarde
V
64 °F 6¼ mi+ 4.900 ft 340° 340° 4 kt METAR LFBA 261900Z AUTO 34004KT 9999 BKN049 18/12 Q1026 NOSIG
8:30 da tarde
V
66 °F 6¼ mi+ 4.900 ft 350° 350° 5 kt METAR LFBA 261830Z AUTO 35005KT 9999 OVC049 19/12 Q1026 NOSIG
8:00 da tarde
V
66 °F 6¼ mi+ - 340° 340° 7 kt METAR LFBA 261800Z AUTO 34007KT CAVOK 19/12 Q1026 NOSIG
7:30 da tarde
V
68 °F 6¼ mi+ - 340° 340° 6 kt METAR LFBA 261730Z AUTO 34006KT CAVOK 20/12 Q1026 NOSIG
7:00 da tarde
V
66 °F 6¼ mi+ - 330° 330° 6 kt METAR LFBA 261700Z AUTO 33006KT CAVOK 19/13 Q1026 NOSIG
6:30 da tarde
V
66 °F 6¼ mi+ 4.600 ft 340° 340° 6 kt METAR LFBA 261630Z AUTO 34006KT 300V360 9999 OVC046 19/13 Q1026 NOSIG
6:00 da tarde
V
66 °F 6¼ mi+ 3.800 ft 330° 330° 4 kt METAR LFBA 261600Z AUTO 33004KT 300V020 9999 BKN038 OVC046 19/13 Q1026 NOSIG
5:30 da tarde
V
66 °F 6¼ mi+ 4.800 ft 340° 340° 4 kt METAR LFBA 261530Z AUTO 34004KT 290V040 9999 OVC048 19/13 Q1027 NOSIG
5:00 da tarde
V
66 °F 6¼ mi+ 4.400 ft 340° 340° 6 kt METAR LFBA 261500Z AUTO 34006KT 9999 SCT038 OVC044 19/13 Q1027 NOSIG
Dados mais antigos

Baixe nosso aplicativo

Fácil acesso a todas as condições meteorológicas da aviação no seu celular e no seu tablet.
Com muitas características não disponíveis no site, como suporte offline e uma lista pessoal de aeroportos.

Nós e terceiros acompanhamos seu comportamento na internet em nosso site com cookies. Se você continuar, nós assumimos que você concorda com nossa política de cookies. Saiba mais